Time;durP1;ratioP1;P1;durP2;ratioP2;P2;SDS_P1;SDS_P2;PMS_P1;PMS_P2;Temp;Humidity;BMP_temperature;BMP_pressure;BME280_temperature;BME280_humidity;BME280_pressure;Samples;Min_cycle;Max_cycle;Signal;HPM_P1;HPM_P2
2021/07/15 00:00:00;;;;;;;2.22;0.50;;;;;;;;;;5009076;28;20117;-70
2021/07/15 00:02:27;;;;;;;0.50;0.30;;;;;;;;;;5007056;28;20029;-70
2021/07/15 00:04:54;;;;;;;3.90;0.47;;;;;;;;;;4992846;28;20447;-70
2021/07/15 00:07:21;;;;;;;2.13;0.70;;;;;;;;;;4992129;28;20034;-70
2021/07/15 00:09:49;;;;;;;0.75;0.30;;;;;;;;;;5004154;28;20403;-69
2021/07/15 00:12:16;;;;;;;1.83;0.35;;;;;;;;;;5011360;28;20073;-69
2021/07/15 00:14:44;;;;;;;2.53;0.40;;;;;;;;;;5009751;28;20045;-69
2021/07/15 00:17:11;;;;;;;1.23;0.35;;;;;;;;;;5011471;28;20026;-70
2021/07/15 00:19:38;;;;;;;2.65;0.52;;;;;;;;;;5014292;28;20121;-70
2021/07/15 00:22:06;;;;;;;1.73;0.50;;;;;;;;;;4996264;28;20510;-70
2021/07/15 00:24:33;;;;;;;2.97;0.70;;;;;;;;;;5003720;28;20029;-70
2021/07/15 00:27:00;;;;;;;0.95;0.40;;;;;;;;;;5005999;28;20497;-71
2021/07/15 00:29:27;;;;;;;3.08;0.40;;;;;;;;;;5011114;28;20463;-69
2021/07/15 00:31:54;;;;;;;3.33;0.60;;;;;;;;;;5007047;28;20022;-69
2021/07/15 00:34:22;;;;;;;2.78;0.30;;;;;;;;;;5010542;28;20029;-69
2021/07/15 00:36:49;;;;;;;3.15;0.70;;;;;;;;;;5012406;28;20498;-69
2021/07/15 00:39:16;;;;;;;1.15;0.40;;;;;;;;;;5005790;28;20108;-70
2021/07/15 00:41:43;;;;;;;2.30;0.50;;;;;;;;;;5013165;28;20022;-68
2021/07/15 00:44:10;;;;;;;3.25;0.43;;;;;;;;;;5013466;28;20053;-69
2021/07/15 00:46:38;;;;;;;2.58;0.70;;;;;;;;;;5011144;28;20018;-68
2021/07/15 00:49:05;;;;;;;1.27;0.40;;;;;;;;;;5007328;28;20065;-70
2021/07/15 00:51:32;;;;;;;1.42;0.55;;;;;;;;;;5012213;28;20355;-70
2021/07/15 00:54:00;;;;;;;4.43;0.82;;;;;;;;;;5013629;28;20033;-70
2021/07/15 00:56:28;;;;;;;0.95;0.52;;;;;;;;;;5007903;28;20378;-70
2021/07/15 00:58:56;;;;;;;3.95;0.60;;;;;;;;;;5013332;28;20054;-70
2021/07/15 01:01:23;;;;;;;1.02;0.40;;;;;;;;;;5012522;28;20030;-68
2021/07/15 01:03:51;;;;;;;2.72;0.60;;;;;;;;;;5013802;28;20018;-70
2021/07/15 01:06:19;;;;;;;1.60;0.75;;;;;;;;;;5012138;28;20105;-69
2021/07/15 01:08:46;;;;;;;1.38;0.40;;;;;;;;;;5013838;28;20046;-69
2021/07/15 01:11:40;;;;;;;1.02;0.40;;;;;;;;;;5011673;28;20033;-69
2021/07/15 01:14:12;;;;;;;3.17;0.50;;;;;;;;;;5012296;28;20050;-69
2021/07/15 01:17:08;;;;;;;2.88;0.60;;;;;;;;;;5011988;28;20080;-70
2021/07/15 01:19:38;;;;;;;2.10;0.60;;;;;;;;;;4967407;28;20038;-70
2021/07/15 01:22:09;;;;;;;1.67;0.68;;;;;;;;;;5007841;28;20034;-70
2021/07/15 01:24:36;;;;;;;1.60;0.82;;;;;;;;;;5013630;28;20022;-70
2021/07/15 01:27:03;;;;;;;4.20;0.88;;;;;;;;;;5011728;28;20026;-69
2021/07/15 01:29:38;;;;;;;1.15;0.43;;;;;;;;;;5013977;28;20030;-70
2021/07/15 01:32:07;;;;;;;1.23;0.40;;;;;;;;;;5011832;28;20391;-68
2021/07/15 01:34:35;;;;;;;1.73;0.40;;;;;;;;;;4995999;28;20032;-68
2021/07/15 01:37:03;;;;;;;1.85;0.45;;;;;;;;;;5001448;28;20029;-68
2021/07/15 01:39:33;;;;;;;1.85;0.32;;;;;;;;;;4994312;28;20060;-69
2021/07/15 01:42:06;;;;;;;0.60;0.40;;;;;;;;;;5007448;28;20482;-70
2021/07/15 01:44:33;;;;;;;1.35;0.50;;;;;;;;;;5013525;28;20113;-70
2021/07/15 01:47:01;;;;;;;2.17;0.52;;;;;;;;;;5011333;28;20022;-69
2021/07/15 01:49:29;;;;;;;2.65;0.60;;;;;;;;;;5012054;28;20049;-69
2021/07/15 01:51:57;;;;;;;1.92;0.50;;;;;;;;;;4991840;28;20030;-69
2021/07/15 01:54:24;;;;;;;3.30;0.65;;;;;;;;;;5005364;28;20022;-70
2021/07/15 01:56:52;;;;;;;2.45;0.68;;;;;;;;;;5011035;28;20026;-70
2021/07/15 01:59:21;;;;;;;2.78;0.50;;;;;;;;;;4995213;28;20021;-69
2021/07/15 02:01:50;;;;;;;2.15;0.50;;;;;;;;;;5010711;28;20104;-70
2021/07/15 02:04:17;;;;;;;2.53;0.50;;;;;;;;;;5010271;28;20014;-70
2021/07/15 02:06:45;;;;;;;1.52;0.70;;;;;;;;;;5010760;28;20087;-70
2021/07/15 02:09:13;;;;;;;1.08;0.38;;;;;;;;;;5012749;28;20108;-70
2021/07/15 02:11:40;;;;;;;1.52;0.52;;;;;;;;;;5008812;28;20084;-69
2021/07/15 02:14:12;;;;;;;1.95;0.50;;;;;;;;;;5012084;28;20014;-69
2021/07/15 02:16:41;;;;;;;1.23;0.50;;;;;;;;;;5010475;28;20084;-69
2021/07/15 02:19:09;;;;;;;2.08;0.50;;;;;;;;;;5012783;28;20025;-70
2021/07/15 02:21:38;;;;;;;4.00;0.50;;;;;;;;;;5010755;28;20401;-70
2021/07/15 02:24:06;;;;;;;2.20;0.38;;;;;;;;;;5010642;28;20474;-70
2021/07/15 02:26:35;;;;;;;0.52;0.30;;;;;;;;;;5003125;28;20021;-70
2021/07/15 02:29:02;;;;;;;1.92;0.50;;;;;;;;;;5010240;28;20079;-70
2021/07/15 02:31:41;;;;;;;1.17;0.40;;;;;;;;;;5005784;28;20030;-70
2021/07/15 02:34:15;;;;;;;3.63;0.50;;;;;;;;;;5012022;28;20446;-69
2021/07/15 02:36:42;;;;;;;0.88;0.40;;;;;;;;;;5009149;28;20474;-71
2021/07/15 02:39:11;;;;;;;1.50;0.35;;;;;;;;;;5010299;28;21074;-70
2021/07/15 02:41:39;;;;;;;2.28;0.85;;;;;;;;;;5004605;28;20042;-69
2021/07/15 02:44:06;;;;;;;2.83;0.50;;;;;;;;;;5009140;28;20025;-70
2021/07/15 02:46:33;;;;;;;3.97;1.02;;;;;;;;;;5002608;28;20169;-70
2021/07/15 02:49:01;;;;;;;2.55;0.85;;;;;;;;;;4994610;28;20025;-70
2021/07/15 02:51:29;;;;;;;1.58;0.50;;;;;;;;;;5011336;28;20022;-69
2021/07/15 02:53:57;;;;;;;1.27;0.60;;;;;;;;;;5010431;28;20173;-70
2021/07/15 02:56:30;;;;;;;2.65;0.40;;;;;;;;;;4990369;28;20033;-70
2021/07/15 02:59:03;;;;;;;2.03;0.40;;;;;;;;;;5011374;28;20022;-69
2021/07/15 03:01:35;;;;;;;1.33;0.30;;;;;;;;;;5007627;28;20043;-69
2021/07/15 03:04:09;;;;;;;2.25;0.50;;;;;;;;;;5012263;28;20205;-70
2021/07/15 03:06:41;;;;;;;1.40;0.30;;;;;;;;;;4993221;28;20390;-69
2021/07/15 03:09:11;;;;;;;1.88;0.52;;;;;;;;;;4993800;28;20068;-69
2021/07/15 03:12:02;;;;;;;2.08;0.50;;;;;;;;;;5009818;28;20574;-69
2021/07/15 03:14:31;;;;;;;0.82;0.38;;;;;;;;;;5011001;28;20033;-69
2021/07/15 03:17:00;;;;;;;1.15;0.55;;;;;;;;;;5008893;28;20053;-69
2021/07/15 03:19:28;;;;;;;1.55;0.50;;;;;;;;;;5010865;28;20033;-70
2021/07/15 03:21:56;;;;;;;1.77;0.65;;;;;;;;;;4992935;28;20481;-68
2021/07/15 03:24:24;;;;;;;3.47;0.95;;;;;;;;;;5011714;28;20491;-68
2021/07/15 03:26:52;;;;;;;1.70;0.70;;;;;;;;;;4992207;28;20030;-68
2021/07/15 03:29:20;;;;;;;4.53;0.50;;;;;;;;;;5011607;28;20176;-69
2021/07/15 03:31:47;;;;;;;3.45;0.40;;;;;;;;;;5009061;28;20034;-69
2021/07/15 03:34:15;;;;;;;4.00;0.70;;;;;;;;;;4990344;28;20033;-70
2021/07/15 03:36:48;;;;;;;2.20;0.63;;;;;;;;;;4992833;28;20034;-70
2021/07/15 03:39:16;;;;;;;2.85;0.60;;;;;;;;;;4999714;28;20034;-70
2021/07/15 03:41:44;;;;;;;1.85;0.52;;;;;;;;;;5005673;28;20149;-69
2021/07/15 03:44:11;;;;;;;3.67;0.77;;;;;;;;;;5015672;28;20106;-68
2021/07/15 03:46:38;;;;;;;1.50;0.50;;;;;;;;;;5013295;28;20545;-69
2021/07/15 03:49:07;;;;;;;1.55;0.40;;;;;;;;;;5015396;28;20140;-69
2021/07/15 03:51:35;;;;;;;1.70;0.50;;;;;;;;;;4994267;28;20116;-69
2021/07/15 03:54:03;;;;;;;3.20;0.60;;;;;;;;;;5015482;28;20032;-69
2021/07/15 03:56:30;;;;;;;2.15;0.63;;;;;;;;;;5012969;28;20030;-70
2021/07/15 03:59:01;;;;;;;1.17;0.52;;;;;;;;;;4997447;28;20470;-69
2021/07/15 04:01:32;;;;;;;1.05;0.40;;;;;;;;;;5013671;28;20137;-67
2021/07/15 04:04:05;;;;;;;2.15;0.47;;;;;;;;;;4997453;28;20032;-69
2021/07/15 04:06:33;;;;;;;3.90;0.40;;;;;;;;;;5013418;28;20114;-69
2021/07/15 04:09:01;;;;;;;1.10;0.55;;;;;;;;;;5015138;28;20046;-69
2021/07/15 04:11:29;;;;;;;1.23;0.52;;;;;;;;;;5011395;28;20029;-68
2021/07/15 04:13:57;;;;;;;1.25;0.30;;;;;;;;;;5013750;28;20045;-69
2021/07/15 04:16:30;;;;;;;2.58;0.57;;;;;;;;;;5004133;28;20022;-70
2021/07/15 04:18:58;;;;;;;2.78;0.50;;;;;;;;;;5015176;28;20049;-69
2021/07/15 04:21:26;;;;;;;1.88;0.70;;;;;;;;;;5013335;28;20026;-68
2021/07/15 04:23:54;;;;;;;3.45;0.60;;;;;;;;;;4997395;28;20075;-68
2021/07/15 04:26:23;;;;;;;2.55;0.50;;;;;;;;;;5011140;28;20030;-70
2021/07/15 04:28:50;;;;;;;1.83;0.50;;;;;;;;;;5010280;28;20405;-70
2021/07/15 04:31:20;;;;;;;3.05;0.88;;;;;;;;;;5011466;28;20394;-69
2021/07/15 04:33:48;;;;;;;1.88;0.32;;;;;;;;;;5004374;28;20034;-70
2021/07/15 04:36:15;;;;;;;3.53;0.50;;;;;;;;;;5004151;28;20029;-69
2021/07/15 04:38:45;;;;;;;1.48;0.93;;;;;;;;;;5008896;28;20030;-70
2021/07/15 04:41:12;;;;;;;2.67;0.70;;;;;;;;;;5001548;28;20037;-69
2021/07/15 04:43:40;;;;;;;4.03;0.70;;;;;;;;;;4994871;28;20405;-69
2021/07/15 04:46:07;;;;;;;2.40;0.60;;;;;;;;;;5012578;28;20065;-70
2021/07/15 04:48:34;;;;;;;1.45;0.40;;;;;;;;;;5014302;28;20169;-70
2021/07/15 04:51:03;;;;;;;1.90;0.47;;;;;;;;;;5012174;28;20555;-69
2021/07/15 04:53:32;;;;;;;1.88;0.63;;;;;;;;;;5008232;28;20348;-69
2021/07/15 04:55:59;;;;;;;2.25;1.05;;;;;;;;;;5010844;28;20033;-69
2021/07/15 04:58:27;;;;;;;3.17;0.57;;;;;;;;;;5014376;28;20026;-69
2021/07/15 05:00:54;;;;;;;2.30;0.60;;;;;;;;;;4993206;28;20022;-70
2021/07/15 05:03:21;;;;;;;2.75;0.98;;;;;;;;;;4996600;28;20042;-69
2021/07/15 05:05:48;;;;;;;1.67;0.63;;;;;;;;;;5009229;28;20092;-70
2021/07/15 05:08:15;;;;;;;1.92;0.60;;;;;;;;;;5013861;28;20056;-70
2021/07/15 05:10:45;;;;;;;1.80;0.60;;;;;;;;;;5012691;28;20022;-70
2021/07/15 05:13:12;;;;;;;0.95;0.43;;;;;;;;;;4996616;28;20561;-69
2021/07/15 05:15:40;;;;;;;3.25;0.63;;;;;;;;;;5011479;28;20033;-69
2021/07/15 05:18:07;;;;;;;1.17;0.60;;;;;;;;;;5013551;28;20093;-69
2021/07/15 05:20:34;;;;;;;1.90;0.50;;;;;;;;;;5011984;28;20026;-69
2021/07/15 05:23:01;;;;;;;5.05;1.00;;;;;;;;;;5014189;28;20478;-69
2021/07/15 05:25:29;;;;;;;1.83;0.40;;;;;;;;;;5006335;28;20087;-70
2021/07/15 05:27:56;;;;;;;1.45;0.50;;;;;;;;;;4998651;28;20031;-70
2021/07/15 05:30:23;;;;;;;2.13;0.50;;;;;;;;;;5004538;28;20037;-69
2021/07/15 05:32:50;;;;;;;2.55;0.70;;;;;;;;;;5006594;28;20026;-68
2021/07/15 05:35:17;;;;;;;2.30;0.50;;;;;;;;;;5006107;28;20049;-69
2021/07/15 05:37:44;;;;;;;3.35;0.75;;;;;;;;;;5011031;28;20053;-70
2021/07/15 05:40:12;;;;;;;4.93;0.65;;;;;;;;;;5001750;28;20022;-71
2021/07/15 05:42:39;;;;;;;2.30;0.70;;;;;;;;;;5006714;28;20057;-68
2021/07/15 05:45:07;;;;;;;2.88;0.73;;;;;;;;;;5008317;28;20030;-70
2021/07/15 05:47:34;;;;;;;4.03;0.50;;;;;;;;;;5006790;28;20037;-69
2021/07/15 05:50:01;;;;;;;2.75;0.60;;;;;;;;;;5005860;28;20088;-70
2021/07/15 05:52:28;;;;;;;4.55;0.47;;;;;;;;;;5007168;28;20058;-70
2021/07/15 05:54:57;;;;;;;1.13;0.40;;;;;;;;;;5007719;28;20048;-69
2021/07/15 05:57:25;;;;;;;1.83;0.50;;;;;;;;;;4989865;28;20040;-69
2021/07/15 05:59:52;;;;;;;2.75;1.15;;;;;;;;;;5007247;28;20030;-70
2021/07/15 06:02:19;;;;;;;2.20;0.40;;;;;;;;;;5006334;28;20649;-70
2021/07/15 06:04:46;;;;;;;1.98;0.50;;;;;;;;;;5005229;28;20044;-70
2021/07/15 06:07:14;;;;;;;1.17;0.43;;;;;;;;;;5008028;28;20034;-70
2021/07/15 06:09:41;;;;;;;2.53;0.50;;;;;;;;;;5011938;28;20046;-70
2021/07/15 06:12:08;;;;;;;2.20;0.50;;;;;;;;;;5011364;28;20093;-70
2021/07/15 06:14:36;;;;;;;3.13;0.40;;;;;;;;;;5005679;28;20022;-69
2021/07/15 06:17:03;;;;;;;2.58;0.40;;;;;;;;;;5007834;28;20018;-69
2021/07/15 06:19:31;;;;;;;2.63;0.60;;;;;;;;;;5012399;28;20022;-71
2021/07/15 06:21:58;;;;;;;1.65;0.50;;;;;;;;;;4992197;28;20069;-71
2021/07/15 06:24:25;;;;;;;1.15;0.40;;;;;;;;;;5011257;28;20113;-71
2021/07/15 06:26:52;;;;;;;3.92;0.63;;;;;;;;;;5009421;28;20030;-71
2021/07/15 06:29:19;;;;;;;3.83;0.55;;;;;;;;;;5010940;28;20030;-71
2021/07/15 06:31:46;;;;;;;1.25;0.50;;;;;;;;;;5010035;28;20064;-71
2021/07/15 06:34:13;;;;;;;1.67;0.68;;;;;;;;;;5012231;28;20128;-70
2021/07/15 06:36:43;;;;;;;2.45;0.52;;;;;;;;;;4993950;28;20069;-70
2021/07/15 06:39:10;;;;;;;2.47;0.88;;;;;;;;;;4990425;28;20076;-71
2021/07/15 06:41:37;;;;;;;2.40;0.40;;;;;;;;;;5011593;28;20379;-69
2021/07/15 06:44:05;;;;;;;1.48;0.60;;;;;;;;;;5010614;28;20026;-70
2021/07/15 06:46:33;;;;;;;1.65;0.60;;;;;;;;;;5010108;28;20113;-69
2021/07/15 06:49:00;;;;;;;1.65;0.60;;;;;;;;;;5010951;28;20049;-71
2021/07/15 06:51:27;;;;;;;4.03;0.68;;;;;;;;;;5007447;28;20030;-70
2021/07/15 06:53:55;;;;;;;1.15;0.50;;;;;;;;;;4994594;28;20405;-69
2021/07/15 06:56:22;;;;;;;1.10;0.40;;;;;;;;;;5009627;28;20076;-69
2021/07/15 06:58:49;;;;;;;4.63;1.02;;;;;;;;;;5011866;28;20414;-70
2021/07/15 07:01:16;;;;;;;41.85;11.55;;;;;;;;;;4991900;28;20095;-70
2021/07/15 07:03:43;;;;;;;174.88;57.92;;;;;;;;;;5010972;28;20113;-70
2021/07/15 07:06:10;;;;;;;54.67;15.63;;;;;;;;;;4992034;28;20394;-69
2021/07/15 07:08:37;;;;;;;79.22;21.40;;;;;;;;;;4989215;28;20046;-69
2021/07/15 07:11:04;;;;;;;21.75;6.60;;;;;;;;;;5010119;28;20394;-71
2021/07/15 07:13:31;;;;;;;480.13;225.02;;;;;;;;;;5011858;28;20010;-70
2021/07/15 07:15:59;;;;;;;733.53;447.88;;;;;;;;;;5006806;28;20056;-70
2021/07/15 07:18:26;;;;;;;57.00;29.00;;;;;;;;;;4993138;28;20117;-69
2021/07/15 07:20:53;;;;;;;38.33;19.25;;;;;;;;;;5009267;28;20093;-69
2021/07/15 07:23:20;;;;;;;52.28;23.27;;;;;;;;;;4992773;28;20442;-70
2021/07/15 07:25:48;;;;;;;315.38;164.55;;;;;;;;;;5011029;28;20101;-70
2021/07/15 07:28:15;;;;;;;234.38;111.47;;;;;;;;;;5010387;28;20382;-70
2021/07/15 07:30:42;;;;;;;244.45;135.60;;;;;;;;;;5008970;28;20100;-69
2021/07/15 07:33:09;;;;;;;45.15;22.85;;;;;;;;;;5010477;28;20021;-71
2021/07/15 07:35:36;;;;;;;35.22;20.08;;;;;;;;;;5010439;28;20022;-69
2021/07/15 07:38:04;;;;;;;45.53;22.10;;;;;;;;;;5010639;28;20025;-70
2021/07/15 07:40:31;;;;;;;238.40;124.57;;;;;;;;;;5009881;28;20033;-70
2021/07/15 07:42:58;;;;;;;263.30;137.75;;;;;;;;;;4992528;28;20042;-70
2021/07/15 07:45:25;;;;;;;212.30;119.85;;;;;;;;;;5011223;28;20030;-70
2021/07/15 07:47:52;;;;;;;293.50;157.65;;;;;;;;;;5011147;28;20395;-70
2021/07/15 07:50:19;;;;;;;234.80;131.35;;;;;;;;;;5007910;28;20026;-69
2021/07/15 07:52:46;;;;;;;203.05;115.78;;;;;;;;;;5005494;28;20033;-70
2021/07/15 07:55:14;;;;;;;241.88;130.98;;;;;;;;;;4989440;28;20038;-68
2021/07/15 07:57:41;;;;;;;199.13;110.55;;;;;;;;;;5010244;28;20030;-69
2021/07/15 08:00:13;;;;;;;157.30;92.85;;;;;;;;;;5010355;28;20091;-68
2021/07/15 08:02:44;;;;;;;81.78;45.20;;;;;;;;;;5007366;28;20501;-69
2021/07/15 08:05:12;;;;;;;107.60;57.38;;;;;;;;;;5005476;28;20510;-70
2021/07/15 08:07:39;;;;;;;11.15;6.50;;;;;;;;;;5006064;28;20038;-69
2021/07/15 08:10:11;;;;;;;11.07;5.97;;;;;;;;;;5002394;28;20061;-71
2021/07/15 08:12:38;;;;;;;7.57;3.45;;;;;;;;;;5009156;28;20026;-70
2021/07/15 08:15:06;;;;;;;7.65;3.72;;;;;;;;;;5012962;28;20022;-71
2021/07/15 08:17:33;;;;;;;6.85;3.42;;;;;;;;;;5008659;28;20606;-70
2021/07/15 08:20:01;;;;;;;6.85;3.35;;;;;;;;;;5010251;28;20029;-70
2021/07/15 08:22:28;;;;;;;8.27;3.15;;;;;;;;;;5009860;28;20383;-71
2021/07/15 08:24:55;;;;;;;8.43;3.25;;;;;;;;;;5011222;28;20025;-71
2021/07/15 08:27:22;;;;;;;6.20;2.70;;;;;;;;;;5009078;28;20036;-70
2021/07/15 08:29:49;;;;;;;6.22;2.67;;;;;;;;;;5012625;28;20042;-70
2021/07/15 08:32:18;;;;;;;4.82;2.03;;;;;;;;;;5011159;28;20080;-71
2021/07/15 08:34:45;;;;;;;6.65;2.67;;;;;;;;;;5014505;28;20021;-72
2021/07/15 08:37:12;;;;;;;5.65;2.10;;;;;;;;;;5012544;28;20025;-72
2021/07/15 08:39:39;;;;;;;9.07;3.20;;;;;;;;;;5010609;28;20033;-72
2021/07/15 08:42:08;;;;;;;4.07;2.63;;;;;;;;;;5012668;28;20018;-72
2021/07/15 08:44:39;;;;;;;6.90;2.67;;;;;;;;;;4994994;28;20041;-71
2021/07/15 08:47:09;;;;;;;6.45;2.67;;;;;;;;;;5011942;28;20030;-70
2021/07/15 08:49:38;;;;;;;6.35;2.95;;;;;;;;;;5012435;28;20061;-70
2021/07/15 08:52:05;;;;;;;6.25;3.20;;;;;;;;;;5010647;28;20018;-70
2021/07/15 08:54:55;;;;;;;4.28;2.22;;;;;;;;;;5013651;28;20502;-71
2021/07/15 08:57:22;;;;;;;16.73;12.57;;;;;;;;;;4993810;28;20112;-71
2021/07/15 08:59:49;;;;;;;12.02;6.55;;;;;;;;;;5008573;28;20109;-71
2021/07/15 09:02:18;;;;;;;14.32;11.00;;;;;;;;;;5010545;28;20138;-70
2021/07/15 09:04:46;;;;;;;25.95;13.38;;;;;;;;;;5008050;28;20030;-71
2021/07/15 09:07:13;;;;;;;16.30;11.23;;;;;;;;;;5011787;28;20034;-70
2021/07/15 09:09:41;;;;;;;11.52;4.70;;;;;;;;;;4994207;28;20056;-71
2021/07/15 09:12:08;;;;;;;11.13;6.00;;;;;;;;;;5012926;28;20053;-71
2021/07/15 09:14:49;;;;;;;11.60;5.72;;;;;;;;;;5012245;28;20057;-71
2021/07/15 09:17:17;;;;;;;7.10;3.92;;;;;;;;;;5012022;28;20038;-71
2021/07/15 09:19:44;;;;;;;12.65;5.93;;;;;;;;;;5011162;28;20130;-71
2021/07/15 09:22:13;;;;;;;12.57;4.15;;;;;;;;;;5009980;28;20045;-71
2021/07/15 09:24:41;;;;;;;10.93;4.45;;;;;;;;;;5012226;28;20030;-71
2021/07/15 09:27:11;;;;;;;4.90;3.33;;;;;;;;;;4994104;28;20500;-70
2021/07/15 09:29:38;;;;;;;10.20;3.95;;;;;;;;;;5012001;28;20443;-70
2021/07/15 09:32:06;;;;;;;7.47;3.85;;;;;;;;;;5009541;28;20041;-71
2021/07/15 09:34:34;;;;;;;6.80;3.90;;;;;;;;;;5012213;28;20037;-70
2021/07/15 09:37:21;;;;;;;12.40;4.18;;;;;;;;;;5013875;28;20026;-71
2021/07/15 09:39:49;;;;;;;10.90;5.13;;;;;;;;;;5011999;28;20017;-71
2021/07/15 09:42:20;;;;;;;8.95;4.60;;;;;;;;;;5011237;28;20037;-71
2021/07/15 09:44:51;;;;;;;6.78;3.63;;;;;;;;;;5012832;28;20099;-71
2021/07/15 09:47:32;;;;;;;9.88;3.38;;;;;;;;;;4995214;28;20040;-73
2021/07/15 09:49:59;;;;;;;7.10;2.80;;;;;;;;;;5012826;28;20110;-71
2021/07/15 09:52:26;;;;;;;4.80;2.83;;;;;;;;;;5011083;28;20030;-71
2021/07/15 09:54:54;;;;;;;3.05;1.30;;;;;;;;;;5013235;28;20470;-71
2021/07/15 09:57:28;;;;;;;4.25;1.05;;;;;;;;;;4992138;28;20088;-71
2021/07/15 09:59:58;;;;;;;3.78;1.20;;;;;;;;;;5012252;28;20049;-71
2021/07/15 10:02:29;;;;;;;3.78;0.90;;;;;;;;;;5009896;28;20430;-71
2021/07/15 10:04:56;;;;;;;3.28;1.10;;;;;;;;;;5012960;28;20526;-72
2021/07/15 10:07:26;;;;;;;3.38;1.10;;;;;;;;;;5008744;28;20497;-71
2021/07/15 10:10:12;;;;;;;2.63;1.05;;;;;;;;;;4994782;28;20127;-70
2021/07/15 10:12:39;;;;;;;3.42;1.13;;;;;;;;;;5011328;28;20034;-70
2021/07/15 10:15:10;;;;;;;1.95;0.98;;;;;;;;;;5012356;28;20037;-71
2021/07/15 10:17:41;;;;;;;3.67;1.45;;;;;;;;;;4994543;28;20030;-70
2021/07/15 10:20:11;;;;;;;4.00;1.40;;;;;;;;;;5012138;28;20030;-71
2021/07/15 10:22:39;;;;;;;3.38;1.63;;;;;;;;;;5010377;28;20040;-70
2021/07/15 10:25:08;;;;;;;5.25;1.48;;;;;;;;;;5012765;28;20014;-71
2021/07/15 10:27:37;;;;;;;6.72;1.20;;;;;;;;;;5002258;28;20033;-70
2021/07/15 10:30:05;;;;;;;2.45;1.02;;;;;;;;;;5011960;28;20340;-71
2021/07/15 10:32:35;;;;;;;2.65;1.02;;;;;;;;;;5002412;28;20022;-71
2021/07/15 10:35:03;;;;;;;5.47;2.03;;;;;;;;;;5005882;28;20113;-70
2021/07/15 10:37:31;;;;;;;3.58;1.88;;;;;;;;;;5009027;28;20033;-70
2021/07/15 10:40:00;;;;;;;3.20;1.55;;;;;;;;;;5012073;28;20582;-70
2021/07/15 10:42:27;;;;;;;4.53;1.95;;;;;;;;;;5011081;28;20029;-70
2021/07/15 10:44:54;;;;;;;3.20;1.50;;;;;;;;;;5012685;28;20382;-71
2021/07/15 10:47:21;;;;;;;3.78;1.50;;;;;;;;;;5010617;28;20026;-69
2021/07/15 10:49:49;;;;;;;4.65;1.95;;;;;;;;;;5029073;28;20029;-70
2021/07/15 10:52:18;;;;;;;7.85;2.47;;;;;;;;;;4995300;28;20482;-70
2021/07/15 10:54:46;;;;;;;3.97;1.60;;;;;;;;;;5031353;28;20052;-71
2021/07/15 10:57:13;;;;;;;3.78;2.00;;;;;;;;;;5009511;28;20079;-71
2021/07/15 10:59:40;;;;;;;5.30;2.55;;;;;;;;;;5030096;28;20041;-70
2021/07/15 11:02:28;;;;;;;6.10;1.70;;;;;;;;;;5013812;28;20060;-72
2021/07/15 11:04:56;;;;;;;1.73;1.02;;;;;;;;;;5020695;28;20418;-72
2021/07/15 11:07:24;;;;;;;4.75;1.88;;;;;;;;;;5011235;28;20033;-71
2021/07/15 11:09:54;;;;;;;4.57;2.35;;;;;;;;;;5012360;28;20487;-71
2021/07/15 11:12:35;;;;;;;3.10;1.48;;;;;;;;;;5014138;28;20100;-69
2021/07/15 11:15:13;;;;;;;3.00;1.33;;;;;;;;;;5019518;28;20026;-69
2021/07/15 11:17:46;;;;;;;3.85;1.55;;;;;;;;;;5027030;28;20033;-72
2021/07/15 11:20:15;;;;;;;2.03;0.97;;;;;;;;;;5001971;28;20033;-70
2021/07/15 11:22:50;;;;;;;2.30;1.00;;;;;;;;;;5030207;28;20474;-71
2021/07/15 11:26:02;;;;;;;4.38;1.40;;;;;;;;;;5017511;28;20022;-72
2021/07/15 11:28:23;;;;;;;4.18;1.00;;;;;;;;;;4993509;28;20100;-71
2021/07/15 11:30:52;;;;;;;1.70;0.77;;;;;;;;;;5029870;28;20489;-70
2021/07/15 11:33:21;;;;;;;1.25;0.40;;;;;;;;;;5031724;28;20534;-71
2021/07/15 11:36:00;;;;;;;3.85;0.70;;;;;;;;;;5007951;28;20042;-70
2021/07/15 11:38:28;;;;;;;2.63;0.65;;;;;;;;;;4994517;28;20045;-71
2021/07/15 11:41:00;;;;;;;2.08;0.45;;;;;;;;;;4997155;28;20030;-72
2021/07/15 11:43:33;;;;;;;2.63;0.70;;;;;;;;;;5022049;28;20025;-70
2021/07/15 11:46:06;;;;;;;1.38;0.40;;;;;;;;;;5004474;28;20034;-70
2021/07/15 11:49:05;;;;;;;1.45;0.60;;;;;;;;;;5031488;28;20025;-72
2021/07/15 11:51:36;;;;;;;1.35;0.50;;;;;;;;;;4997032;28;20034;-71
2021/07/15 11:54:22;;;;;;;2.63;0.30;;;;;;;;;;5023370;28;20552;-71
2021/07/15 11:56:50;;;;;;;2.65;0.75;;;;;;;;;;5024054;28;20026;-71
2021/07/15 11:59:32;;;;;;;0.70;0.30;;;;;;;;;;5001401;28;20022;-70
2021/07/15 12:02:18;;;;;;;1.77;0.40;;;;;;;;;;5011356;28;20096;-71
2021/07/15 12:05:04;;;;;;;1.33;0.60;;;;;;;;;;5004869;28;20045;-70
2021/07/15 12:07:31;;;;;;;1.90;0.60;;;;;;;;;;5021441;28;20018;-70
2021/07/15 12:09:59;;;;;;;2.28;0.40;;;;;;;;;;4999151;28;20045;-72
2021/07/15 12:12:26;;;;;;;2.97;0.93;;;;;;;;;;5013413;28;20037;-71
2021/07/15 12:14:54;;;;;;;1.58;0.60;;;;;;;;;;5012927;28;20549;-70
2021/07/15 12:17:22;;;;;;;4.15;0.70;;;;;;;;;;5009577;28;20049;-72
2021/07/15 12:19:59;;;;;;;2.50;0.90;;;;;;;;;;5012352;28;20509;-72
2021/07/15 12:22:27;;;;;;;2.67;0.80;;;;;;;;;;5009075;28;20034;-70
2021/07/15 12:25:11;;;;;;;1.55;0.60;;;;;;;;;;5011861;28;20022;-71
2021/07/15 12:27:45;;;;;;;2.13;0.60;;;;;;;;;;5012188;28;20021;-71
2021/07/15 12:30:11;;;;;;;;;;;;;;;;;;5008303;28;20065;-71
2021/07/15 12:32:39;;;;;;;2.17;0.80;;;;;;;;;;5013115;28;19922;-72
2021/07/15 12:35:13;;;;;;;2.85;1.20;;;;;;;;;;5013832;28;20403;-71
2021/07/15 12:37:40;;;;;;;5.00;1.88;;;;;;;;;;5008924;28;20029;-70
2021/07/15 12:40:08;;;;;;;1.80;1.10;;;;;;;;;;5009656;28;20025;-70
2021/07/15 12:42:36;;;;;;;2.72;0.85;;;;;;;;;;5012000;28;20042;-71
2021/07/15 12:45:19;;;;;;;2.10;1.02;;;;;;;;;;5013747;28;20106;-70
2021/07/15 12:48:02;;;;;;;4.55;0.90;;;;;;;;;;5011127;28;20030;-70
2021/07/15 12:50:30;;;;;;;2.45;0.90;;;;;;;;;;5010860;28;20564;-70
2021/07/15 12:53:09;;;;;;;4.32;1.30;;;;;;;;;;5013817;28;20092;-69
2021/07/15 12:55:37;;;;;;;2.28;0.85;;;;;;;;;;4999757;28;20038;-69
2021/07/15 12:58:04;;;;;;;2.85;0.98;;;;;;;;;;5013799;28;20018;-70
2021/07/15 13:00:33;;;;;;;4.97;1.90;;;;;;;;;;5007360;28;20388;-69
2021/07/15 13:03:00;;;;;;;1.77;1.40;;;;;;;;;;5013336;28;20018;-69
2021/07/15 13:05:27;;;;;;;3.50;1.10;;;;;;;;;;5012420;28;20030;-69
2021/07/15 13:07:55;;;;;;;2.65;1.10;;;;;;;;;;5014552;28;20029;-69
2021/07/15 13:15:37;;;;;;;3.30;1.25;;;;;;;;;;5012034;28;20050;-70
2021/07/15 13:18:15;;;;;;;4.07;1.27;;;;;;;;;;5007380;28;20026;-70
2021/07/15 13:20:43;;;;;;;1.90;1.30;;;;;;;;;;5009980;28;20363;-69
2021/07/15 13:23:10;;;;;;;4.30;1.38;;;;;;;;;;5011327;28;20025;-69
2021/07/15 13:25:43;;;;;;;2.25;1.27;;;;;;;;;;5013200;28;20065;-71
2021/07/15 13:28:11;;;;;;;3.45;1.55;;;;;;;;;;5013266;28;20034;-69
2021/07/15 13:30:39;;;;;;;3.65;1.25;;;;;;;;;;5010759;28;20360;-70
2021/07/15 13:33:18;;;;;;;3.20;1.33;;;;;;;;;;5010639;28;20026;-70
2021/07/15 13:35:46;;;;;;;3.20;1.85;;;;;;;;;;5009058;28;20018;-70
2021/07/15 13:38:14;;;;;;;4.60;1.80;;;;;;;;;;5013603;28;20164;-70
2021/07/15 13:40:42;;;;;;;3.13;1.73;;;;;;;;;;5010792;28;20022;-71
2021/07/15 13:43:13;;;;;;;2.78;1.75;;;;;;;;;;5011047;28;20038;-69
2021/07/15 13:45:41;;;;;;;4.55;2.03;;;;;;;;;;5011119;28;20109;-69
2021/07/15 13:48:22;;;;;;;2.83;1.65;;;;;;;;;;5011442;28;20018;-70
2021/07/15 13:50:51;;;;;;;3.80;1.60;;;;;;;;;;5011874;28;20021;-70
2021/07/15 13:53:19;;;;;;;4.63;1.65;;;;;;;;;;5012086;28;20054;-70
2021/07/15 13:55:48;;;;;;;2.60;1.35;;;;;;;;;;5011578;28;20475;-70
2021/07/15 13:58:16;;;;;;;3.25;1.35;;;;;;;;;;5012570;28;20105;-70
2021/07/15 14:00:50;;;;;;;4.10;1.60;;;;;;;;;;5010903;28;20061;-71
2021/07/15 14:03:18;;;;;;;3.38;1.27;;;;;;;;;;5009791;28;20018;-70
2021/07/15 14:05:47;;;;;;;4.25;1.50;;;;;;;;;;5007415;28;20018;-71
2021/07/15 14:08:15;;;;;;;2.45;1.55;;;;;;;;;;5012037;28;20026;-71
2021/07/15 14:10:43;;;;;;;3.88;1.40;;;;;;;;;;5010971;28;20032;-71
2021/07/15 14:13:10;;;;;;;4.63;1.30;;;;;;;;;;5009061;28;20486;-71
2021/07/15 14:15:39;;;;;;;3.88;1.73;;;;;;;;;;5011300;28;20026;-70
2021/07/15 14:18:07;;;;;;;3.45;1.40;;;;;;;;;;5010130;28;20052;-70
2021/07/15 14:20:36;;;;;;;4.60;1.88;;;;;;;;;;5010652;28;20097;-69
2021/07/15 14:23:04;;;;;;;4.82;1.65;;;;;;;;;;5010587;28;20030;-69
2021/07/15 14:25:32;;;;;;;3.40;1.65;;;;;;;;;;5008539;28;20029;-70
2021/07/15 14:27:59;;;;;;;4.43;1.48;;;;;;;;;;4994869;28;20041;-71
2021/07/15 14:30:27;;;;;;;4.43;2.10;;;;;;;;;;5010783;28;20026;-70
2021/07/15 14:32:54;;;;;;;5.38;1.80;;;;;;;;;;5013677;28;20045;-69
2021/07/15 14:35:22;;;;;;;4.45;1.80;;;;;;;;;;5009628;28;20026;-69
2021/07/15 14:37:49;;;;;;;4.25;1.92;;;;;;;;;;4993990;28;20042;-69
2021/07/15 14:40:16;;;;;;;4.18;1.75;;;;;;;;;;5010267;28;20030;-70
2021/07/15 14:42:44;;;;;;;6.32;1.95;;;;;;;;;;5011887;28;20524;-70
2021/07/15 14:45:12;;;;;;;3.58;1.95;;;;;;;;;;5010001;28;20022;-70
2021/07/15 14:47:43;;;;;;;2.40;1.60;;;;;;;;;;5011813;28;20030;-69
2021/07/15 14:50:12;;;;;;;3.42;2.08;;;;;;;;;;5008537;28;20026;-71
2021/07/15 14:52:39;;;;;;;2.85;1.80;;;;;;;;;;5008620;28;20049;-70
2021/07/15 14:55:07;;;;;;;6.45;1.80;;;;;;;;;;5010824;28;20053;-70
2021/07/15 14:57:38;;;;;;;3.38;2.08;;;;;;;;;;5012174;28;20105;-70